Time;durP1;ratioP1;P1;durP2;ratioP2;P2;SDS_P1;SDS_P2;PMS_P1;PMS_P2;Temp;Humidity;BMP_temperature;BMP_pressure;BME280_temperature;BME280_humidity;BME280_pressure;Samples;Min_cycle;Max_cycle;Signal;HPM_P1;HPM_P2
2021/03/22 00:01:50;;;;;;;17.40;3.50;;;3.80;99.90;;;;;;4911935;29;20189;-59
2021/03/22 00:04:18;;;;;;;23.33;4.60;;;3.80;99.90;;;;;;4913570;29;20197;-59
2021/03/22 00:06:45;;;;;;;18.57;4.13;;;3.80;99.90;;;;;;4920322;29;20190;-59
2021/03/22 00:09:13;;;;;;;19.23;4.57;;;3.80;99.90;;;;;;4915821;29;20197;-59
2021/03/22 00:11:41;;;;;;;24.97;4.33;;;3.70;99.90;;;;;;4913246;29;20300;-59
2021/03/22 00:14:09;;;;;;;21.67;4.17;;;3.70;99.90;;;;;;4927300;29;20387;-59
2021/03/22 00:16:36;;;;;;;23.77;4.37;;;3.60;99.90;;;;;;4915897;29;20205;-59
2021/03/22 00:19:04;;;;;;;16.10;3.80;;;3.70;99.90;;;;;;4914285;29;20209;-59
2021/03/22 00:21:31;;;;;;;25.20;5.33;;;3.60;99.90;;;;;;4919436;29;20208;-59
2021/03/22 00:23:59;;;;;;;14.43;4.33;;;3.60;99.90;;;;;;4918796;29;20224;-59
2021/03/22 00:26:28;;;;;;;21.13;5.00;;;3.60;99.90;;;;;;4910293;29;20216;-59
2021/03/22 00:28:56;;;;;;;20.73;5.23;;;3.60;99.90;;;;;;4918541;29;20237;-59
2021/03/22 00:31:23;;;;;;;22.83;5.47;;;3.70;99.90;;;;;;4923629;29;20409;-59
2021/03/22 00:33:51;;;;;;;21.60;5.30;;;3.60;99.90;;;;;;4916638;29;20205;-59
2021/03/22 00:36:18;;;;;;;23.13;5.63;;;3.60;99.90;;;;;;4924109;29;20287;-59
2021/03/22 00:38:46;;;;;;;28.57;5.63;;;3.60;99.90;;;;;;4913586;29;20269;-59
2021/03/22 00:41:13;;;;;;;17.67;4.83;;;3.50;99.90;;;;;;4911433;29;20296;-59
2021/03/22 00:43:40;;;;;;;21.67;5.50;;;3.50;99.90;;;;;;4912381;29;20292;-59
2021/03/22 00:46:09;;;;;;;30.10;5.77;;;3.50;99.90;;;;;;4922304;29;20258;-59
2021/03/22 00:48:37;;;;;;;20.43;5.50;;;3.50;99.90;;;;;;4913241;29;20198;-59
2021/03/22 00:51:07;;;;;;;21.57;5.97;;;3.50;99.90;;;;;;4917001;29;20789;-59
2021/03/22 00:53:35;;;;;;;18.20;5.00;;;3.40;99.90;;;;;;4919471;29;20750;-59
2021/03/22 00:56:04;;;;;;;24.17;5.93;;;3.40;99.90;;;;;;4912415;29;20229;-59
2021/03/22 00:58:32;;;;;;;26.10;5.60;;;3.30;99.90;;;;;;4919966;29;20224;-59
2021/03/22 01:01:01;;;;;;;25.77;5.17;;;3.30;99.90;;;;;;4910656;29;20202;-59
2021/03/22 01:03:31;;;;;;;20.80;5.03;;;3.20;99.90;;;;;;4909754;29;20296;-59
2021/03/22 01:06:00;;;;;;;21.60;5.57;;;3.10;99.90;;;;;;4911876;29;20197;-59
2021/03/22 01:08:32;;;;;;;19.80;5.37;;;3.10;99.90;;;;;;4908056;29;20204;-59
2021/03/22 01:11:02;;;;;;;26.07;5.73;;;3.20;99.90;;;;;;4919513;29;20256;-59
2021/03/22 01:13:32;;;;;;;25.00;6.30;;;3.20;99.90;;;;;;4910776;29;20883;-59
2021/03/22 01:16:17;;;;;;;21.77;5.07;;;3.30;99.90;;;;;;4922998;29;20289;-60
2021/03/22 01:18:49;;;;;;;29.33;5.73;;;3.40;99.90;;;;;;4922071;29;20738;-59
2021/03/22 01:21:20;;;;;;;24.40;5.73;;;3.50;99.90;;;;;;4912244;29;20253;-60
2021/03/22 01:23:48;;;;;;;26.40;5.63;;;3.60;99.90;;;;;;4923948;29;20731;-59
2021/03/22 01:26:18;;;;;;;21.53;5.20;;;3.60;99.90;;;;;;4911398;29;20292;-60
2021/03/22 01:28:45;;;;;;;28.20;6.50;;;3.70;99.90;;;;;;4915687;29;20239;-58
2021/03/22 01:31:13;;;;;;;18.07;5.63;;;3.70;99.90;;;;;;4916125;29;20225;-59
2021/03/22 01:33:43;;;;;;;23.53;6.10;;;3.70;99.90;;;;;;4914829;29;20257;-59
2021/03/22 01:36:14;;;;;;;13.80;5.53;;;3.60;99.90;;;;;;4924278;29;20620;-59
2021/03/22 01:38:42;;;;;;;25.37;6.20;;;3.50;99.90;;;;;;4922385;29;20336;-59
2021/03/22 01:41:45;;;;;;;25.70;6.60;;;3.40;99.90;;;;;;4905091;29;20258;-59
2021/03/22 01:44:23;;;;;;;16.43;5.63;;;3.30;99.90;;;;;;4907024;29;20204;-59
2021/03/22 01:46:53;;;;;;;20.53;5.80;;;3.20;99.90;;;;;;4916770;29;20287;-59
2021/03/22 01:49:24;;;;;;;20.40;6.33;;;3.10;99.90;;;;;;4921107;29;20222;-59
2021/03/22 01:51:55;;;;;;;25.27;7.13;;;3.00;99.90;;;;;;4917178;29;20383;-60
2021/03/22 01:54:23;;;;;;;31.60;6.97;;;2.90;99.90;;;;;;4912513;29;20257;-59
2021/03/22 01:56:52;;;;;;;27.53;7.37;;;2.90;99.90;;;;;;4914372;29;20256;-59
2021/03/22 01:59:26;;;;;;;18.57;6.67;;;2.80;99.90;;;;;;4912502;29;20244;-59
2021/03/22 02:01:57;;;;;;;31.50;8.13;;;2.80;99.90;;;;;;4903316;29;20198;-59
2021/03/22 02:04:26;;;;;;;29.50;7.40;;;2.80;99.90;;;;;;4912278;29;20565;-59
2021/03/22 02:06:55;;;;;;;28.67;8.63;;;2.80;99.90;;;;;;4914378;29;20228;-58
2021/03/22 02:09:22;;;;;;;22.63;7.77;;;2.80;99.90;;;;;;4912992;29;20407;-59
2021/03/22 02:11:49;;;;;;;26.40;8.00;;;2.80;99.90;;;;;;4918125;29;20237;-59
2021/03/22 02:14:17;;;;;;;26.93;8.03;;;2.70;99.90;;;;;;4915297;29;20699;-59
2021/03/22 02:17:11;;;;;;;32.73;8.53;;;2.70;99.90;;;;;;4914398;29;20252;-59
2021/03/22 02:20:13;;;;;;;28.97;8.20;;;2.70;99.90;;;;;;4919011;29;20568;-60
2021/03/22 02:23:35;;;;;;;33.63;8.97;;;2.60;99.90;;;;;;4921856;29;20614;-59
2021/03/22 02:26:13;;;;;;;27.97;8.60;;;2.60;99.90;;;;;;4902337;29;20293;-59
2021/03/22 02:29:02;;;;;;;34.57;9.10;;;2.50;99.90;;;;;;4914663;29;20240;-59
2021/03/22 02:31:59;;;;;;;31.70;8.77;;;2.40;99.90;;;;;;4928641;29;20297;-59
2021/03/22 02:34:37;;;;;;;34.00;8.87;;;2.40;99.90;;;;;;4916049;29;20237;-59
2021/03/22 02:37:16;;;;;;;24.57;9.27;;;2.40;99.90;;;;;;4911443;29;20197;-59
2021/03/22 02:39:52;;;;;;;33.80;8.93;;;2.40;99.90;;;;;;4928066;29;20198;-59
2021/03/22 02:42:24;;;;;;;29.87;8.93;;;2.40;99.90;;;;;;4909185;29;20545;-59
2021/03/22 02:44:51;;;;;;;28.80;9.10;;;2.40;99.90;;;;;;4920490;29;20236;-59
2021/03/22 02:47:31;;;;;;;34.17;8.70;;;2.30;99.90;;;;;;4925862;29;20607;-59
2021/03/22 02:50:04;;;;;;;31.80;9.63;;;2.30;99.90;;;;;;4922130;29;20200;-59
2021/03/22 02:53:01;;;;;;;44.67;10.53;;;2.40;99.90;;;;;;4921518;29;20280;-59
2021/03/22 02:55:35;;;;;;;44.87;9.10;;;2.50;99.90;;;;;;4926854;29;20202;-59
2021/03/22 02:58:06;;;;;;;32.50;10.13;;;2.60;99.90;;;;;;4911851;29;20216;-59
2021/03/22 03:00:37;;;;;;;43.03;10.93;;;2.60;99.90;;;;;;4914696;29;20751;-58
2021/03/22 03:03:10;;;;;;;38.60;10.40;;;2.70;99.90;;;;;;4921447;29;20203;-59
2021/03/22 03:05:39;;;;;;;36.03;10.13;;;2.70;99.90;;;;;;4920790;29;20664;-59
2021/03/22 03:08:10;;;;;;;43.80;11.20;;;2.80;99.90;;;;;;4923859;29;20185;-59
2021/03/22 03:10:37;;;;;;;40.33;10.10;;;2.90;99.90;;;;;;4921890;29;20188;-59
2021/03/22 03:13:06;;;;;;;36.10;11.20;;;2.90;99.90;;;;;;4921432;29;20200;-59
2021/03/22 03:15:37;;;;;;;35.17;10.27;;;3.00;99.90;;;;;;4932732;29;20189;-60
2021/03/22 03:18:05;;;;;;;51.00;11.67;;;3.00;99.90;;;;;;4923485;29;20217;-59
2021/03/22 03:20:33;;;;;;;41.03;10.57;;;3.10;99.90;;;;;;4919464;29;20205;-59
2021/03/22 03:23:01;;;;;;;47.93;11.93;;;3.20;99.90;;;;;;4924762;29;20228;-59
2021/03/22 03:25:29;;;;;;;34.03;11.10;;;3.30;99.90;;;;;;4919959;29;20720;-59
2021/03/22 03:27:57;;;;;;;32.33;10.20;;;3.30;99.90;;;;;;4914021;29;20221;-59
2021/03/22 03:30:28;;;;;;;44.57;11.60;;;3.40;99.90;;;;;;4920434;29;20229;-59
2021/03/22 03:32:56;;;;;;;34.13;10.80;;;3.50;99.90;;;;;;4912526;29;20292;-59
2021/03/22 03:35:26;;;;;;;41.27;12.00;;;3.50;99.90;;;;;;4915713;29;20197;-59
2021/03/22 03:37:53;;;;;;;38.23;12.00;;;3.50;99.90;;;;;;4918043;29;20835;-59
2021/03/22 03:40:25;;;;;;;34.63;11.57;;;3.60;99.90;;;;;;4919690;29;20257;-59
2021/03/22 03:42:52;;;;;;;35.63;10.43;;;3.60;99.90;;;;;;4913985;29;20198;-59
2021/03/22 03:45:24;;;;;;;39.83;11.63;;;3.70;99.90;;;;;;4914813;29;20228;-59
2021/03/22 03:48:09;;;;;;;37.43;11.37;;;3.70;99.90;;;;;;4922441;29;20213;-59
2021/03/22 03:50:37;;;;;;;42.20;10.93;;;3.70;99.90;;;;;;4913920;29;20281;-59
2021/03/22 03:53:06;;;;;;;41.07;11.63;;;3.80;99.90;;;;;;4918077;29;20225;-59
2021/03/22 03:55:34;;;;;;;46.10;12.30;;;3.90;99.90;;;;;;4930726;29;20292;-59
2021/03/22 03:58:02;;;;;;;51.87;11.90;;;3.90;99.90;;;;;;4918590;29;20217;-59
2021/03/22 04:00:31;;;;;;;45.43;11.83;;;3.90;99.90;;;;;;4913842;29;20669;-59
2021/03/22 04:03:15;;;;;;;41.33;11.47;;;3.90;99.90;;;;;;4908884;29;20209;-59
2021/03/22 04:05:43;;;;;;;33.43;11.17;;;3.90;99.90;;;;;;4923797;29;20193;-59
2021/03/22 04:08:11;;;;;;;45.47;12.17;;;3.90;99.90;;;;;;4915265;29;20791;-59
2021/03/22 04:10:40;;;;;;;37.37;11.37;;;4.00;99.90;;;;;;4918492;29;20198;-59
2021/03/22 04:13:07;;;;;;;35.17;11.43;;;4.00;99.90;;;;;;4914246;29;20213;-59
2021/03/22 04:15:34;;;;;;;38.00;11.10;;;4.00;99.90;;;;;;4918729;29;20205;-59
2021/03/22 04:18:02;;;;;;;43.47;11.80;;;4.00;99.90;;;;;;4912717;29;20304;-59
2021/03/22 04:20:29;;;;;;;40.77;12.77;;;4.10;99.90;;;;;;4923677;29;20200;-59
2021/03/22 04:22:57;;;;;;;37.50;10.70;;;4.10;99.90;;;;;;4917432;29;20207;-59
2021/03/22 04:25:24;;;;;;;53.13;12.40;;;4.20;99.90;;;;;;4920007;29;20227;-59
2021/03/22 04:27:53;;;;;;;37.70;11.23;;;4.20;99.90;;;;;;4914629;29;20241;-59
2021/03/22 04:30:21;;;;;;;37.73;10.33;;;4.20;99.90;;;;;;4920883;29;20197;-59
2021/03/22 04:32:52;;;;;;;35.20;10.93;;;4.30;99.90;;;;;;4912537;29;20193;-58
2021/03/22 04:35:21;;;;;;;46.90;11.30;;;4.30;99.90;;;;;;4913661;29;20655;-59
2021/03/22 04:37:51;;;;;;;34.10;10.20;;;4.30;99.90;;;;;;4912234;29;20224;-59
2021/03/22 04:40:20;;;;;;;32.13;11.03;;;4.30;99.90;;;;;;4913428;29;20202;-59
2021/03/22 04:42:48;;;;;;;39.07;11.30;;;4.30;99.90;;;;;;4912212;29;20296;-59
2021/03/22 04:45:19;;;;;;;29.57;10.57;;;4.30;99.90;;;;;;4915978;29;20391;-59
2021/03/22 04:47:46;;;;;;;27.77;10.17;;;4.30;99.90;;;;;;4912758;29;20288;-59
2021/03/22 04:50:15;;;;;;;39.80;11.50;;;4.30;99.90;;;;;;4914293;29;20201;-59
2021/03/22 04:52:43;;;;;;;28.43;10.47;;;4.30;99.90;;;;;;4914679;29;20360;-59
2021/03/22 04:55:12;;;;;;;33.27;10.97;;;4.30;99.90;;;;;;4916930;29;20189;-59
2021/03/22 04:57:40;;;;;;;33.07;10.60;;;4.30;99.90;;;;;;4913980;29;20200;-59
2021/03/22 05:00:09;;;;;;;37.37;10.83;;;4.30;99.90;;;;;;4912179;29;20205;-59
2021/03/22 05:02:37;;;;;;;32.53;10.17;;;4.40;99.90;;;;;;4911802;29;20233;-59
2021/03/22 05:05:06;;;;;;;30.50;10.60;;;4.40;99.90;;;;;;4913224;29;20197;-59
2021/03/22 05:07:34;;;;;;;41.00;11.13;;;4.40;99.90;;;;;;4916959;29;20271;-59
2021/03/22 05:10:01;;;;;;;32.80;10.53;;;4.40;99.90;;;;;;4911455;29;20332;-59
2021/03/22 05:12:28;;;;;;;35.80;10.03;;;4.40;99.90;;;;;;4918376;29;20295;-59
2021/03/22 05:14:56;;;;;;;26.23;9.93;;;4.40;99.90;;;;;;4915214;29;20229;-59
2021/03/22 05:17:23;;;;;;;33.00;10.13;;;4.40;99.90;;;;;;4912439;29;20225;-59
2021/03/22 05:19:52;;;;;;;26.50;8.70;;;4.50;99.90;;;;;;4911798;29;20221;-59
2021/03/22 05:22:20;;;;;;;23.80;8.97;;;4.50;99.90;;;;;;4920442;29;20208;-59
2021/03/22 05:24:47;;;;;;;28.00;8.77;;;4.50;99.90;;;;;;4913591;29;20225;-59
2021/03/22 05:27:14;;;;;;;39.33;10.47;;;4.50;99.90;;;;;;4923143;29;20720;-59
2021/03/22 05:29:42;;;;;;;29.73;9.50;;;4.50;99.90;;;;;;4915561;29;20649;-59
2021/03/22 05:32:28;;;;;;;25.63;8.97;;;4.50;99.90;;;;;;4918226;29;20202;-59
2021/03/22 05:34:58;;;;;;;27.67;8.50;;;4.50;99.90;;;;;;4911997;29;20202;-59
2021/03/22 05:37:25;;;;;;;25.97;8.47;;;4.50;99.90;;;;;;4912242;29;20296;-59
2021/03/22 05:39:53;;;;;;;24.70;8.23;;;4.50;99.90;;;;;;4909672;29;20257;-59
2021/03/22 05:42:46;;;;;;;27.83;7.90;;;4.50;99.90;;;;;;4910881;29;20288;-59
2021/03/22 05:45:31;;;;;;;23.20;7.60;;;4.50;99.90;;;;;;4911562;29;20197;-59
2021/03/22 05:48:05;;;;;;;24.23;8.23;;;4.60;99.90;;;;;;4912112;29;20635;-59
2021/03/22 05:50:41;;;;;;;20.87;8.00;;;4.60;99.90;;;;;;4905641;29;20196;-59
2021/03/22 05:53:32;;;;;;;26.23;7.80;;;4.60;99.90;;;;;;4913162;29;20193;-59
2021/03/22 05:56:03;;;;;;;26.03;8.50;;;4.60;99.90;;;;;;4914833;29;20304;-59
2021/03/22 05:58:54;;;;;;;23.47;8.77;;;4.70;99.90;;;;;;4917901;29;20213;-59
2021/03/22 06:01:31;;;;;;;29.20;8.73;;;4.70;99.90;;;;;;4910612;29;20811;-59
2021/03/22 06:04:03;;;;;;;21.83;9.13;;;4.70;99.90;;;;;;4909635;29;20232;-59
2021/03/22 06:06:36;;;;;;;24.13;9.27;;;4.70;99.90;;;;;;4912355;29;20206;-59
2021/03/22 06:09:13;;;;;;;33.87;11.03;;;4.70;99.90;;;;;;4911257;29;20653;-58
2021/03/22 06:11:57;;;;;;;45.63;17.90;;;4.70;99.90;;;;;;4909345;29;20203;-59
2021/03/22 06:14:33;;;;;;;43.53;15.87;;;4.80;99.90;;;;;;4919805;29;20296;-58
2021/03/22 06:17:08;;;;;;;42.53;14.50;;;4.80;99.90;;;;;;4923903;29;20296;-59
2021/03/22 06:19:46;;;;;;;35.70;11.80;;;4.80;99.90;;;;;;4919361;29;20221;-59
2021/03/22 06:22:21;;;;;;;32.53;11.07;;;4.80;99.90;;;;;;4914843;29;20197;-59
2021/03/22 06:24:50;;;;;;;30.60;10.50;;;4.90;99.90;;;;;;4911132;29;20678;-58
2021/03/22 06:27:17;;;;;;;27.70;10.53;;;4.90;99.90;;;;;;4916894;29;20947;-59
2021/03/22 06:29:45;;;;;;;27.83;9.90;;;4.90;99.90;;;;;;4918816;29;20688;-59
2021/03/22 06:32:18;;;;;;;28.77;9.50;;;4.90;99.90;;;;;;4911801;29;20221;-59
2021/03/22 06:34:54;;;;;;;26.03;9.90;;;4.90;99.90;;;;;;4912503;29;20261;-59
2021/03/22 06:37:25;;;;;;;29.03;11.53;;;5.00;99.90;;;;;;4911985;29;20221;-59
2021/03/22 06:40:07;;;;;;;34.00;13.70;;;5.00;99.90;;;;;;4913404;29;20269;-59
2021/03/22 06:42:36;;;;;;;31.57;11.70;;;5.00;99.90;;;;;;4908066;29;20205;-58
2021/03/22 06:45:07;;;;;;;26.83;10.27;;;5.10;99.90;;;;;;4909811;29;20289;-59
2021/03/22 06:47:35;;;;;;;23.50;10.73;;;5.10;99.90;;;;;;4913092;29;20225;-59
2021/03/22 06:50:26;;;;;;;31.67;11.40;;;5.10;99.90;;;;;;4907825;29;20197;-59
2021/03/22 06:52:54;;;;;;;35.17;14.93;;;5.20;99.90;;;;;;4914766;29;20201;-59
2021/03/22 06:55:31;;;;;;;35.97;13.00;;;5.20;99.90;;;;;;4910311;28;20530;-61
2021/03/22 06:57:59;;;;;;;29.43;10.07;;;5.30;99.90;;;;;;4910638;29;20615;-59
2021/03/22 07:00:28;;;;;;;27.97;11.10;;;5.40;99.90;;;;;;4908301;29;20284;-59
2021/03/22 07:02:58;;;;;;;27.17;9.80;;;5.40;99.90;;;;;;4914114;29;20284;-59
2021/03/22 07:05:38;;;;;;;23.20;8.87;;;5.50;99.90;;;;;;4914859;29;20310;-59
2021/03/22 07:08:09;;;;;;;27.23;9.57;;;5.50;99.90;;;;;;4917240;29;20284;-59
2021/03/22 07:10:39;;;;;;;27.53;9.97;;;5.60;99.90;;;;;;4925248;29;20413;-60
2021/03/22 07:13:16;;;;;;;26.03;8.53;;;5.60;99.90;;;;;;4915055;29;20362;-59
2021/03/22 07:15:45;;;;;;;25.10;8.80;;;5.70;99.90;;;;;;4913465;29;20204;-59
2021/03/22 07:18:17;;;;;;;29.37;9.73;;;5.80;99.90;;;;;;4914133;29;20205;-59
2021/03/22 07:21:06;;;;;;;26.53;8.57;;;5.80;99.90;;;;;;4916764;29;20205;-59
2021/03/22 07:23:56;;;;;;;24.70;8.60;;;5.90;99.90;;;;;;4922177;29;20201;-59
2021/03/22 07:26:32;;;;;;;29.67;8.87;;;6.00;99.90;;;;;;4934607;29;20287;-59
2021/03/22 07:29:22;;;;;;;23.73;9.17;;;6.10;99.90;;;;;;4913149;29;20232;-59
2021/03/22 07:32:01;;;;;;;25.53;9.70;;;6.20;99.90;;;;;;4918276;29;20615;-59
2021/03/22 07:34:48;;;;;;;22.80;9.20;;;6.30;99.90;;;;;;4915654;29;20202;-59
2021/03/22 07:37:31;;;;;;;31.73;8.80;;;6.40;99.90;;;;;;4914694;29;20241;-59
2021/03/22 07:40:07;;;;;;;17.67;7.67;;;6.50;99.90;;;;;;4911825;29;20252;-59
2021/03/22 07:42:41;;;;;;;25.07;8.93;;;6.60;99.90;;;;;;4913697;29;20265;-60
2021/03/22 07:45:33;;;;;;;21.47;8.23;;;6.70;99.90;;;;;;4902710;29;20596;-59
2021/03/22 07:48:29;;;;;;;19.43;7.50;;;6.80;99.90;;;;;;4917700;29;20317;-59
2021/03/22 07:51:30;;;;;;;25.60;8.40;;;6.90;99.90;;;;;;4917807;29;20193;-59
2021/03/22 07:54:06;;;;;;;18.80;7.37;;;7.10;99.90;;;;;;4878290;29;20291;-59
2021/03/22 07:56:44;;;;;;;23.20;7.33;;;7.30;99.90;;;;;;4918847;29;20255;-60
2021/03/22 07:59:22;;;;;;;17.37;7.20;;;7.40;99.90;;;;;;4912987;29;20303;-60
2021/03/22 08:02:18;;;;;;;16.87;7.30;;;7.50;99.90;;;;;;4912532;29;20609;-60
2021/03/22 08:04:52;;;;;;;22.13;7.07;;;7.60;99.90;;;;;;4911609;29;20270;-60
2021/03/22 08:07:44;;;;;;;23.10;7.10;;;7.70;99.90;;;;;;4913577;29;20197;-60
2021/03/22 08:10:48;;;;;;;24.47;7.07;;;7.70;99.90;;;;;;4921647;29;20224;-60
2021/03/22 08:13:38;;;;;;;18.80;7.27;;;7.90;99.90;;;;;;4905104;29;20240;-60
2021/03/22 08:16:23;;;;;;;18.47;6.83;;;7.90;99.90;;;;;;4914954;29;20260;-60
2021/03/22 08:18:54;;;;;;;23.80;6.53;;;8.00;99.90;;;;;;4917887;29;20316;-60
2021/03/22 08:21:38;;;;;;;17.37;6.50;;;8.60;99.90;;;;;;4912821;29;20197;-60
2021/03/22 08:24:22;;;;;;;24.07;7.10;;;9.90;99.90;;;;;;4918699;29;20203;-60
2021/03/22 08:26:56;;;;;;;23.97;6.83;;;11.60;99.90;;;;;;4916818;29;20236;-61
2021/03/22 08:29:28;;;;;;;21.60;6.60;;;12.70;99.90;;;;;;4922427;29;20326;-61
2021/03/22 08:32:04;;;;;;;19.03;6.30;;;13.10;99.90;;;;;;4933568;29;20205;-60
2021/03/22 08:34:40;;;;;;;14.63;5.83;;;12.60;99.90;;;;;;4918096;29;20197;-60
2021/03/22 08:37:12;;;;;;;15.33;6.30;;;12.40;99.90;;;;;;4916974;29;20844;-60
2021/03/22 08:39:46;;;;;;;16.37;6.40;;;12.10;99.90;;;;;;4918129;29;20220;-60
2021/03/22 08:42:19;;;;;;;16.37;5.93;;;11.60;99.90;;;;;;4922156;29;20201;-61
2021/03/22 08:44:58;;;;;;;21.63;6.13;;;11.20;99.90;;;;;;4914908;29;20252;-60
2021/03/22 08:47:40;;;;;;;18.47;6.70;;;10.80;99.90;;;;;;4922875;29;20209;-60
2021/03/22 08:50:11;;;;;;;14.73;6.77;;;10.50;99.90;;;;;;4913226;29;20194;-60
2021/03/22 08:52:42;;;;;;;13.90;6.03;;;10.10;99.90;;;;;;4914918;29;20241;-60
2021/03/22 08:55:16;;;;;;;16.27;6.13;;;9.90;99.90;;;;;;4911254;29;20209;-60
2021/03/22 08:58:00;;;;;;;14.57;5.50;;;10.00;99.90;;;;;;4922109;29;20228;-60
2021/03/22 09:00:37;;;;;;;15.27;5.80;;;10.20;99.90;;;;;;4929380;29;20264;-60
2021/03/22 09:03:26;;;;;;;16.83;6.23;;;10.20;99.90;;;;;;4904955;29;20659;-59
2021/03/22 09:06:12;;;;;;;11.47;5.10;;;10.10;99.90;;;;;;4912842;29;20209;-60
2021/03/22 09:09:01;;;;;;;9.53;5.10;;;9.90;99.90;;;;;;4913547;29;20197;-60
2021/03/22 09:11:34;;;;;;;11.00;5.17;;;9.70;99.90;;;;;;4908818;29;20284;-60
2021/03/22 09:14:04;;;;;;;13.27;6.07;;;9.50;99.90;;;;;;4914112;29;20235;-60
2021/03/22 09:16:40;;;;;;;15.17;5.73;;;9.40;99.90;;;;;;4923549;29;20193;-60
2021/03/22 09:19:41;;;;;;;14.17;6.00;;;9.50;99.90;;;;;;4917957;29;20691;-60
2021/03/22 09:22:55;;;;;;;13.17;5.60;;;9.50;99.90;;;;;;4919845;29;20682;-60
2021/03/22 09:26:02;;;;;;;11.33;5.43;;;9.50;99.90;;;;;;4922651;29;20192;-60
2021/03/22 09:29:00;;;;;;;11.60;5.40;;;9.60;99.90;;;;;;4909994;29;20237;-60
2021/03/22 09:31:43;;;;;;;15.53;5.60;;;9.80;99.90;;;;;;4910866;29;20212;-60
2021/03/22 09:34:35;;;;;;;15.90;7.07;;;9.80;99.90;;;;;;4920751;29;20292;-60
2021/03/22 09:37:36;;;;;;;13.63;6.77;;;9.90;99.90;;;;;;4914787;29;20673;-60
2021/03/22 09:40:06;;;;;;;18.50;6.60;;;9.80;99.90;;;;;;4913462;29;20215;-60
2021/03/22 09:42:34;;;;;;;11.70;6.50;;;9.90;99.90;;;;;;4912227;29;20193;-60
2021/03/22 09:45:20;;;;;;;20.03;6.10;;;9.90;99.90;;;;;;4933481;29;20197;-60
2021/03/22 09:48:19;;;;;;;13.63;5.40;;;10.00;99.90;;;;;;4912795;29;20200;-61
2021/03/22 09:50:49;;;;;;;13.30;5.40;;;10.00;99.90;;;;;;4914514;29;20572;-60
2021/03/22 09:53:25;;;;;;;18.20;6.53;;;9.60;99.90;;;;;;4906436;29;20280;-61
2021/03/22 09:56:22;;;;;;;13.27;6.33;;;9.80;99.90;;;;;;4914245;29;20288;-60
2021/03/22 09:58:50;;;;;;;10.80;5.83;;;9.90;99.90;;;;;;4911985;29;20224;-60
2021/03/22 10:01:41;;;;;;;14.40;5.80;;;10.00;99.90;;;;;;4923140;29;20200;-60
2021/03/22 10:04:33;;;;;;;12.60;5.97;;;10.10;99.90;;;;;;4916284;29;20537;-61
2021/03/22 10:07:24;;;;;;;13.10;6.37;;;10.10;99.90;;;;;;4915307;29;20189;-61
2021/03/22 10:09:56;;;;;;;14.83;6.77;;;10.20;99.90;;;;;;4909526;29;20316;-60
2021/03/22 10:12:30;;;;;;;15.67;6.70;;;10.30;99.90;;;;;;4918397;29;20293;-60
2021/03/22 10:15:21;;;;;;;13.20;6.37;;;10.50;99.90;;;;;;4915570;29;20208;-60
2021/03/22 10:17:56;;;;;;;16.77;6.63;;;10.60;99.90;;;;;;4902549;29;20197;-60
2021/03/22 10:20:35;;;;;;;14.23;6.47;;;10.80;99.90;;;;;;4917836;29;20219;-60
2021/03/22 10:23:20;;;;;;;16.73;6.17;;;10.90;99.90;;;;;;4909241;29;20736;-61
2021/03/22 10:25:50;;;;;;;21.03;6.20;;;10.90;99.90;;;;;;4901524;29;20226;-61
2021/03/22 10:28:22;;;;;;;14.67;5.80;;;11.00;99.90;;;;;;4919423;29;20237;-60
2021/03/22 10:30:54;;;;;;;17.53;5.73;;;11.20;99.90;;;;;;4930794;29;20196;-60
2021/03/22 10:33:22;;;;;;;15.43;5.53;;;11.20;99.90;;;;;;4911100;29;20197;-60
2021/03/22 10:35:53;;;;;;;14.70;5.60;;;11.10;99.90;;;;;;4918698;29;20245;-60
2021/03/22 10:38:25;;;;;;;12.43;4.00;;;11.00;99.90;;;;;;4919085;29;20257;-61
2021/03/22 10:40:53;;;;;;;9.27;4.70;;;10.70;99.90;;;;;;4926940;29;20255;-61
2021/03/22 10:43:29;;;;;;;9.30;4.03;;;10.50;99.90;;;;;;4912649;29;20193;-61
2021/03/22 10:45:59;;;;;;;15.83;5.47;;;10.30;99.90;;;;;;4922019;29;20611;-61
2021/03/22 10:48:35;;;;;;;13.23;6.10;;;10.00;99.90;;;;;;4914319;29;20208;-61
2021/03/22 10:51:08;;;;;;;10.70;5.67;;;9.80;99.90;;;;;;4908693;29;20582;-61
2021/03/22 10:53:51;;;;;;;16.63;6.67;;;9.60;99.90;;;;;;4924315;29;20630;-61
2021/03/22 10:56:22;;;;;;;13.67;5.60;;;9.50;99.90;;;;;;4923247;29;20195;-61
2021/03/22 10:58:51;;;;;;;19.30;6.57;;;9.30;99.90;;;;;;4931251;29;20216;-61
2021/03/22 11:01:20;;;;;;;16.77;6.43;;;9.20;99.90;;;;;;4922719;29;20268;-61
2021/03/22 11:03:50;;;;;;;14.87;7.10;;;9.00;99.90;;;;;;4927633;29;20280;-61
2021/03/22 11:06:29;;;;;;;21.70;7.17;;;9.00;99.90;;;;;;4907632;29;20200;-61
2021/03/22 11:08:59;;;;;;;17.87;6.50;;;9.00;99.90;;;;;;4928342;29;20200;-61
2021/03/22 11:11:30;;;;;;;15.73;6.97;;;9.00;99.90;;;;;;4909971;29;20242;-60
2021/03/22 11:14:03;;;;;;;15.33;6.20;;;9.10;99.90;;;;;;4914531;29;20660;-61
2021/03/22 11:16:38;;;;;;;14.13;6.40;;;9.20;99.90;;;;;;4920085;29;20288;-60
2021/03/22 11:19:24;;;;;;;15.60;6.23;;;9.30;99.90;;;;;;4924114;29;20220;-60
2021/03/22 11:21:53;;;;;;;22.13;6.37;;;9.50;99.90;;;;;;4929383;28;20534;-61
2021/03/22 11:24:35;;;;;;;14.77;6.10;;;9.70;99.90;;;;;;4917085;29;20198;-61
2021/03/22 11:27:05;;;;;;;12.70;5.80;;;9.60;99.90;;;;;;4918247;29;20220;-60
2021/03/22 11:29:32;;;;;;;13.17;5.90;;;9.70;99.90;;;;;;4916890;29;20194;-61
2021/03/22 11:32:02;;;;;;;13.57;5.20;;;9.70;99.90;;;;;;4918925;29;20220;-61
2021/03/22 11:34:33;;;;;;;11.73;5.70;;;9.70;99.90;;;;;;4908839;29;20198;-61
2021/03/22 11:37:06;;;;;;;16.70;5.97;;;9.60;99.90;;;;;;4909619;29;20550;-61
2021/03/22 11:39:37;;;;;;;14.50;5.53;;;9.60;99.90;;;;;;4914535;29;20213;-61
2021/03/22 11:42:17;;;;;;;14.90;6.00;;;9.60;99.90;;;;;;4910630;29;20205;-61
2021/03/22 11:44:46;;;;;;;12.97;5.63;;;9.60;99.90;;;;;;4915556;29;20272;-61
2021/03/22 11:47:41;;;;;;;11.27;5.43;;;9.60;99.90;;;;;;4909047;29;20197;-61
2021/03/22 11:50:44;;;;;;;14.30;5.27;;;9.70;99.90;;;;;;4910901;29;20196;-61
2021/03/22 11:53:22;;;;;;;12.87;4.63;;;9.80;99.90;;;;;;4910439;29;20204;-61
2021/03/22 11:55:52;;;;;;;14.83;5.20;;;9.90;99.90;;;;;;4910585;29;20229;-60
2021/03/22 11:58:44;;;;;;;12.70;4.93;;;10.00;99.90;;;;;;4908362;29;20206;-61
2021/03/22 12:01:22;;;;;;;12.67;4.40;;;10.10;99.90;;;;;;4906982;29;20225;-59
2021/03/22 12:04:18;;;;;;;9.27;4.53;;;10.20;99.90;;;;;;4915417;29;20213;-60
2021/03/22 12:06:57;;;;;;;8.50;3.83;;;10.30;99.90;;;;;;4914406;29;20197;-60
2021/03/22 12:09:27;;;;;;;10.37;4.03;;;10.50;99.90;;;;;;4919234;29;20208;-60
2021/03/22 12:11:56;;;;;;;16.07;4.87;;;10.50;99.90;;;;;;4916949;29;20212;-60
2021/03/22 12:14:25;;;;;;;11.57;4.73;;;10.50;99.90;;;;;;4911919;29;20194;-60
2021/03/22 12:17:00;;;;;;;10.17;4.17;;;10.40;99.90;;;;;;4924235;29;20197;-60
2021/03/22 12:19:35;;;;;;;19.10;5.03;;;10.40;99.90;;;;;;4916866;29;20230;-59
2021/03/22 12:22:05;;;;;;;12.97;5.17;;;10.30;99.90;;;;;;4914264;29;20680;-59
2021/03/22 12:24:37;;;;;;;9.57;4.50;;;10.20;99.90;;;;;;4920485;29;20247;-60
2021/03/22 12:27:10;;;;;;;14.97;4.93;;;10.20;99.90;;;;;;4915558;29;20284;-59
2021/03/22 12:29:37;;;;;;;12.77;4.73;;;10.20;99.90;;;;;;4906515;29;20197;-59
2021/03/22 12:32:06;;;;;;;11.93;4.63;;;10.30;99.90;;;;;;4907340;29;20213;-60
2021/03/22 12:34:34;;;;;;;10.90;4.73;;;10.20;99.90;;;;;;4899343;29;20331;-59
2021/03/22 12:37:01;;;;;;;13.47;4.97;;;10.10;99.90;;;;;;4909644;29;20805;-60
2021/03/22 12:39:33;;;;;;;11.20;4.83;;;9.90;99.90;;;;;;4910335;29;20237;-59
2021/03/22 12:42:05;;;;;;;12.17;5.53;;;9.90;99.90;;;;;;4906900;29;20205;-59
2021/03/22 12:44:34;;;;;;;15.17;5.50;;;9.70;99.90;;;;;;4910481;29;20210;-59
2021/03/22 12:47:01;;;;;;;14.37;5.87;;;9.70;99.90;;;;;;4910176;29;20205;-59
2021/03/22 12:49:29;;;;;;;9.57;5.10;;;9.60;99.90;;;;;;4916360;29;20280;-60
2021/03/22 12:51:56;;;;;;;11.90;5.10;;;9.60;99.90;;;;;;4909894;29;20256;-60
2021/03/22 12:54:25;;;;;;;11.00;5.07;;;9.50;99.90;;;;;;4920433;29;20198;-61
2021/03/22 12:56:54;;;;;;;15.43;4.93;;;9.40;99.90;;;;;;4911997;29;20264;-61
2021/03/22 12:59:34;;;;;;;12.50;4.80;;;9.40;99.90;;;;;;4915999;29;20248;-61
2021/03/22 13:02:11;;;;;;;9.67;4.63;;;9.30;99.90;;;;;;4918125;29;20190;-61
2021/03/22 13:04:40;;;;;;;12.40;5.00;;;9.20;99.90;;;;;;4909582;29;20197;-61
2021/03/22 13:07:09;;;;;;;10.13;5.23;;;9.10;99.90;;;;;;4915383;29;20280;-61
2021/03/22 13:09:38;;;;;;;12.43;4.67;;;9.10;99.90;;;;;;4907975;29;20229;-61
2021/03/22 13:12:10;;;;;;;13.27;5.20;;;9.20;99.90;;;;;;4907377;29;20293;-61
2021/03/22 13:14:38;;;;;;;10.37;5.03;;;9.30;99.90;;;;;;4912140;29;20201;-61
2021/03/22 13:17:06;;;;;;;16.97;5.00;;;9.40;99.90;;;;;;4913186;29;20208;-61
2021/03/22 13:19:34;;;;;;;9.67;4.80;;;9.20;99.90;;;;;;4910128;29;20220;-61
2021/03/22 13:22:01;;;;;;;10.93;4.70;;;9.20;99.90;;;;;;4923108;29;20260;-61